sensor_id;sensor_type;location;lat;lon;timestamp;P1;durP1;ratioP1;P2;durP2;ratioP2
40707;SDS011;26392;42.696;23.350;2023-08-21T00:02:16;10.18;;;7.25;;
40707;SDS011;26392;42.696;23.350;2023-08-21T00:04:41;9.18;;;7.30;;
40707;SDS011;26392;42.696;23.350;2023-08-21T00:07:07;9.88;;;6.70;;
40707;SDS011;26392;42.696;23.350;2023-08-21T00:09:34;8.48;;;6.90;;
40707;SDS011;26392;42.696;23.350;2023-08-21T00:12:00;10.43;;;7.47;;
40707;SDS011;26392;42.696;23.350;2023-08-21T00:14:26;9.98;;;7.22;;
40707;SDS011;26392;42.696;23.350;2023-08-21T00:16:51;14.35;;;7.47;;
40707;SDS011;26392;42.696;23.350;2023-08-21T00:19:17;10.20;;;7.07;;
40707;SDS011;26392;42.696;23.350;2023-08-21T00:21:42;12.05;;;7.35;;
40707;SDS011;26392;42.696;23.350;2023-08-21T00:24:08;10.82;;;7.32;;
40707;SDS011;26392;42.696;23.350;2023-08-21T00:26:33;12.43;;;6.97;;
40707;SDS011;26392;42.696;23.350;2023-08-21T00:28:59;9.45;;;7.20;;
40707;SDS011;26392;42.696;23.350;2023-08-21T00:31:24;13.98;;;7.57;;
40707;SDS011;26392;42.696;23.350;2023-08-21T00:33:50;11.05;;;7.63;;
40707;SDS011;26392;42.696;23.350;2023-08-21T00:36:15;9.88;;;7.07;;
40707;SDS011;26392;42.696;23.350;2023-08-21T00:38:41;11.23;;;7.72;;
40707;SDS011;26392;42.696;23.350;2023-08-21T00:41:06;13.05;;;7.45;;
40707;SDS011;26392;42.696;23.350;2023-08-21T00:43:32;11.32;;;8.13;;
40707;SDS011;26392;42.696;23.350;2023-08-21T00:45:57;14.63;;;7.50;;
40707;SDS011;26392;42.696;23.350;2023-08-21T00:48:23;11.13;;;7.22;;
40707;SDS011;26392;42.696;23.350;2023-08-21T00:50:49;10.20;;;7.30;;
40707;SDS011;26392;42.696;23.350;2023-08-21T00:53:15;11.50;;;7.18;;
40707;SDS011;26392;42.696;23.350;2023-08-21T00:55:41;10.13;;;6.80;;
40707;SDS011;26392;42.696;23.350;2023-08-21T00:58:08;9.27;;;7.18;;
40707;SDS011;26392;42.696;23.350;2023-08-21T01:00:37;12.30;;;7.60;;
40707;SDS011;26392;42.696;23.350;2023-08-21T01:03:03;10.23;;;7.25;;
40707;SDS011;26392;42.696;23.350;2023-08-21T01:05:29;11.75;;;7.30;;
40707;SDS011;26392;42.696;23.350;2023-08-21T01:08:02;11.90;;;7.30;;
40707;SDS011;26392;42.696;23.350;2023-08-21T01:16:22;16.80;;;7.95;;
40707;SDS011;26392;42.696;23.350;2023-08-21T01:18:49;13.27;;;8.57;;
40707;SDS011;26392;42.696;23.350;2023-08-21T01:21:15;13.57;;;7.85;;
40707;SDS011;26392;42.696;23.350;2023-08-21T01:23:41;10.30;;;7.55;;
40707;SDS011;26392;42.696;23.350;2023-08-21T01:26:08;14.95;;;7.75;;
40707;SDS011;26392;42.696;23.350;2023-08-21T01:28:34;16.77;;;7.88;;
40707;SDS011;26392;42.696;23.350;2023-08-21T01:31:15;14.25;;;8.60;;
40707;SDS011;26392;42.696;23.350;2023-08-21T01:33:47;14.68;;;8.07;;
40707;SDS011;26392;42.696;23.350;2023-08-21T01:36:16;13.73;;;8.52;;
40707;SDS011;26392;42.696;23.350;2023-08-21T01:38:42;12.23;;;8.10;;
40707;SDS011;26392;42.696;23.350;2023-08-21T01:41:08;13.02;;;7.65;;
40707;SDS011;26392;42.696;23.350;2023-08-21T01:43:34;17.30;;;8.93;;
40707;SDS011;26392;42.696;23.350;2023-08-21T01:46:00;15.73;;;8.32;;
40707;SDS011;26392;42.696;23.350;2023-08-21T01:48:27;13.50;;;7.50;;
40707;SDS011;26392;42.696;23.350;2023-08-21T01:50:52;11.98;;;7.85;;
40707;SDS011;26392;42.696;23.350;2023-08-21T01:53:18;12.63;;;8.23;;
40707;SDS011;26392;42.696;23.350;2023-08-21T01:55:43;13.43;;;8.40;;
40707;SDS011;26392;42.696;23.350;2023-08-21T01:58:08;15.18;;;8.25;;
40707;SDS011;26392;42.696;23.350;2023-08-21T02:00:34;13.02;;;8.32;;
40707;SDS011;26392;42.696;23.350;2023-08-21T02:02:59;10.88;;;7.05;;
40707;SDS011;26392;42.696;23.350;2023-08-21T02:05:25;13.38;;;7.90;;
40707;SDS011;26392;42.696;23.350;2023-08-21T02:07:50;12.20;;;7.63;;
40707;SDS011;26392;42.696;23.350;2023-08-21T02:10:15;11.32;;;7.50;;
40707;SDS011;26392;42.696;23.350;2023-08-21T02:12:41;11.10;;;7.45;;
40707;SDS011;26392;42.696;23.350;2023-08-21T02:15:06;15.13;;;7.93;;
40707;SDS011;26392;42.696;23.350;2023-08-21T02:17:32;13.20;;;8.35;;
40707;SDS011;26392;42.696;23.350;2023-08-21T02:19:57;12.15;;;8.20;;
40707;SDS011;26392;42.696;23.350;2023-08-21T02:22:23;11.93;;;7.93;;
40707;SDS011;26392;42.696;23.350;2023-08-21T02:24:48;14.15;;;8.40;;
40707;SDS011;26392;42.696;23.350;2023-08-21T02:27:14;12.65;;;8.23;;
40707;SDS011;26392;42.696;23.350;2023-08-21T02:29:39;10.30;;;7.65;;
40707;SDS011;26392;42.696;23.350;2023-08-21T02:32:05;14.30;;;7.85;;
40707;SDS011;26392;42.696;23.350;2023-08-21T02:34:30;9.30;;;7.75;;
40707;SDS011;26392;42.696;23.350;2023-08-21T02:36:55;11.48;;;7.93;;
40707;SDS011;26392;42.696;23.350;2023-08-21T02:39:21;13.38;;;8.15;;
40707;SDS011;26392;42.696;23.350;2023-08-21T02:41:46;13.38;;;8.40;;
40707;SDS011;26392;42.696;23.350;2023-08-21T02:44:12;14.02;;;8.50;;
40707;SDS011;26392;42.696;23.350;2023-08-21T02:46:37;10.70;;;8.07;;
40707;SDS011;26392;42.696;23.350;2023-08-21T02:49:03;10.93;;;7.95;;
40707;SDS011;26392;42.696;23.350;2023-08-21T02:51:28;12.48;;;8.55;;
40707;SDS011;26392;42.696;23.350;2023-08-21T02:53:53;13.75;;;8.60;;
40707;SDS011;26392;42.696;23.350;2023-08-21T02:56:19;14.20;;;8.25;;
40707;SDS011;26392;42.696;23.350;2023-08-21T02:58:44;12.82;;;8.10;;
40707;SDS011;26392;42.696;23.350;2023-08-21T03:01:10;12.02;;;7.80;;
40707;SDS011;26392;42.696;23.350;2023-08-21T03:03:35;11.32;;;7.85;;
40707;SDS011;26392;42.696;23.350;2023-08-21T03:06:01;10.70;;;7.90;;
40707;SDS011;26392;42.696;23.350;2023-08-21T03:08:27;15.00;;;8.55;;
40707;SDS011;26392;42.696;23.350;2023-08-21T03:10:52;12.30;;;7.60;;
40707;SDS011;26392;42.696;23.350;2023-08-21T03:13:17;15.95;;;7.95;;
40707;SDS011;26392;42.696;23.350;2023-08-21T03:15:43;9.90;;;7.45;;
40707;SDS011;26392;42.696;23.350;2023-08-21T03:18:08;15.55;;;8.20;;
40707;SDS011;26392;42.696;23.350;2023-08-21T03:20:34;12.48;;;8.10;;
40707;SDS011;26392;42.696;23.350;2023-08-21T03:22:59;11.40;;;7.68;;
40707;SDS011;26392;42.696;23.350;2023-08-21T03:25:25;10.15;;;7.80;;
40707;SDS011;26392;42.696;23.350;2023-08-21T03:27:50;16.13;;;7.95;;
40707;SDS011;26392;42.696;23.350;2023-08-21T03:30:16;11.93;;;8.23;;
40707;SDS011;26392;42.696;23.350;2023-08-21T03:32:41;17.42;;;8.40;;
40707;SDS011;26392;42.696;23.350;2023-08-21T03:35:07;12.00;;;7.72;;
40707;SDS011;26392;42.696;23.350;2023-08-21T03:37:32;11.77;;;8.02;;
40707;SDS011;26392;42.696;23.350;2023-08-21T03:39:58;11.20;;;8.57;;
40707;SDS011;26392;42.696;23.350;2023-08-21T03:42:23;12.88;;;8.00;;
40707;SDS011;26392;42.696;23.350;2023-08-21T03:44:49;12.02;;;8.15;;
40707;SDS011;26392;42.696;23.350;2023-08-21T03:47:15;13.10;;;8.40;;
40707;SDS011;26392;42.696;23.350;2023-08-21T03:49:41;11.90;;;8.13;;
40707;SDS011;26392;42.696;23.350;2023-08-21T03:52:07;9.65;;;7.55;;
40707;SDS011;26392;42.696;23.350;2023-08-21T03:54:32;10.73;;;7.60;;
40707;SDS011;26392;42.696;23.350;2023-08-21T03:56:57;11.82;;;7.43;;
40707;SDS011;26392;42.696;23.350;2023-08-21T03:59:23;11.57;;;7.90;;
40707;SDS011;26392;42.696;23.350;2023-08-21T04:01:52;10.38;;;9.13;;
40707;SDS011;26392;42.696;23.350;2023-08-21T04:04:17;8.98;;;7.40;;
40707;SDS011;26392;42.696;23.350;2023-08-21T04:06:43;10.60;;;7.68;;
40707;SDS011;26392;42.696;23.350;2023-08-21T04:09:08;12.13;;;7.90;;
40707;SDS011;26392;42.696;23.350;2023-08-21T04:11:34;12.52;;;8.32;;
40707;SDS011;26392;42.696;23.350;2023-08-21T04:14:00;11.80;;;7.95;;
40707;SDS011;26392;42.696;23.350;2023-08-21T04:16:26;13.63;;;8.07;;
40707;SDS011;26392;42.696;23.350;2023-08-21T04:18:53;14.48;;;8.15;;
40707;SDS011;26392;42.696;23.350;2023-08-21T04:21:18;13.80;;;8.10;;
40707;SDS011;26392;42.696;23.350;2023-08-21T04:23:44;12.07;;;8.20;;
40707;SDS011;26392;42.696;23.350;2023-08-21T04:26:10;11.00;;;8.07;;
40707;SDS011;26392;42.696;23.350;2023-08-21T04:28:36;14.13;;;8.32;;
40707;SDS011;26392;42.696;23.350;2023-08-21T04:31:04;17.45;;;8.45;;
40707;SDS011;26392;42.696;23.350;2023-08-21T04:33:30;13.52;;;8.73;;
40707;SDS011;26392;42.696;23.350;2023-08-21T04:35:56;17.90;;;8.88;;
40707;SDS011;26392;42.696;23.350;2023-08-21T04:38:21;13.48;;;8.77;;
40707;SDS011;26392;42.696;23.350;2023-08-21T04:40:47;17.60;;;8.85;;
40707;SDS011;26392;42.696;23.350;2023-08-21T04:43:13;11.43;;;7.80;;
40707;SDS011;26392;42.696;23.350;2023-08-21T04:45:38;18.13;;;8.00;;
40707;SDS011;26392;42.696;23.350;2023-08-21T04:48:12;12.35;;;7.63;;
40707;SDS011;26392;42.696;23.350;2023-08-21T04:50:37;11.75;;;7.80;;
40707;SDS011;26392;42.696;23.350;2023-08-21T04:53:03;13.85;;;7.85;;
40707;SDS011;26392;42.696;23.350;2023-08-21T04:55:28;12.20;;;7.97;;
40707;SDS011;26392;42.696;23.350;2023-08-21T04:57:54;13.40;;;8.55;;
40707;SDS011;26392;42.696;23.350;2023-08-21T05:00:19;12.48;;;7.95;;
40707;SDS011;26392;42.696;23.350;2023-08-21T05:02:45;17.08;;;9.25;;
40707;SDS011;26392;42.696;23.350;2023-08-21T05:05:10;20.23;;;9.25;;
40707;SDS011;26392;42.696;23.350;2023-08-21T05:07:35;20.27;;;9.05;;
40707;SDS011;26392;42.696;23.350;2023-08-21T05:10:01;17.60;;;9.95;;
40707;SDS011;26392;42.696;23.350;2023-08-21T05:12:27;19.27;;;10.10;;
40707;SDS011;26392;42.696;23.350;2023-08-21T05:14:53;14.32;;;10.07;;
40707;SDS011;26392;42.696;23.350;2023-08-21T05:17:19;22.23;;;10.77;;
40707;SDS011;26392;42.696;23.350;2023-08-21T05:19:44;16.63;;;10.02;;
40707;SDS011;26392;42.696;23.350;2023-08-21T05:22:09;15.65;;;10.30;;
40707;SDS011;26392;42.696;23.350;2023-08-21T05:24:35;15.13;;;9.05;;
40707;SDS011;26392;42.696;23.350;2023-08-21T05:27:00;12.65;;;8.40;;
40707;SDS011;26392;42.696;23.350;2023-08-21T05:29:26;15.43;;;8.18;;
40707;SDS011;26392;42.696;23.350;2023-08-21T05:31:51;15.35;;;8.93;;
40707;SDS011;26392;42.696;23.350;2023-08-21T05:34:17;14.85;;;8.05;;
40707;SDS011;26392;42.696;23.350;2023-08-21T05:36:42;16.02;;;7.85;;
40707;SDS011;26392;42.696;23.350;2023-08-21T05:39:07;19.23;;;8.27;;
40707;SDS011;26392;42.696;23.350;2023-08-21T05:41:33;14.15;;;8.43;;
40707;SDS011;26392;42.696;23.350;2023-08-21T05:43:59;11.57;;;7.53;;
40707;SDS011;26392;42.696;23.350;2023-08-21T05:46:24;13.65;;;7.60;;
40707;SDS011;26392;42.696;23.350;2023-08-21T05:48:49;20.63;;;7.88;;
40707;SDS011;26392;42.696;23.350;2023-08-21T05:51:15;14.77;;;8.10;;
40707;SDS011;26392;42.696;23.350;2023-08-21T05:53:40;9.98;;;7.07;;
40707;SDS011;26392;42.696;23.350;2023-08-21T05:56:06;19.90;;;7.95;;
40707;SDS011;26392;42.696;23.350;2023-08-21T05:58:31;11.88;;;7.50;;
40707;SDS011;26392;42.696;23.350;2023-08-21T06:00:58;12.48;;;8.32;;
40707;SDS011;26392;42.696;23.350;2023-08-21T06:03:24;12.05;;;7.75;;
40707;SDS011;26392;42.696;23.350;2023-08-21T06:05:49;12.98;;;7.63;;
40707;SDS011;26392;42.696;23.350;2023-08-21T06:08:14;11.65;;;7.85;;
40707;SDS011;26392;42.696;23.350;2023-08-21T06:10:40;14.60;;;8.07;;
40707;SDS011;26392;42.696;23.350;2023-08-21T06:13:05;18.58;;;7.65;;
40707;SDS011;26392;42.696;23.350;2023-08-21T06:15:31;10.98;;;8.00;;
40707;SDS011;26392;42.696;23.350;2023-08-21T06:17:58;17.73;;;7.78;;
40707;SDS011;26392;42.696;23.350;2023-08-21T06:20:23;13.80;;;8.63;;
40707;SDS011;26392;42.696;23.350;2023-08-21T06:22:49;12.18;;;8.32;;
40707;SDS011;26392;42.696;23.350;2023-08-21T06:25:14;15.70;;;8.48;;
40707;SDS011;26392;42.696;23.350;2023-08-21T06:27:40;20.40;;;9.70;;
40707;SDS011;26392;42.696;23.350;2023-08-21T06:30:05;13.48;;;8.85;;
40707;SDS011;26392;42.696;23.350;2023-08-21T06:32:31;17.58;;;9.57;;
40707;SDS011;26392;42.696;23.350;2023-08-21T06:34:57;17.77;;;8.20;;
40707;SDS011;26392;42.696;23.350;2023-08-21T06:37:22;12.43;;;8.70;;
40707;SDS011;26392;42.696;23.350;2023-08-21T06:39:48;12.55;;;8.27;;
40707;SDS011;26392;42.696;23.350;2023-08-21T06:42:13;17.65;;;9.32;;
40707;SDS011;26392;42.696;23.350;2023-08-21T06:44:39;23.95;;;8.80;;
40707;SDS011;26392;42.696;23.350;2023-08-21T06:47:05;18.13;;;8.55;;
40707;SDS011;26392;42.696;23.350;2023-08-21T06:49:30;16.40;;;8.32;;
40707;SDS011;26392;42.696;23.350;2023-08-21T06:51:56;16.73;;;8.73;;
40707;SDS011;26392;42.696;23.350;2023-08-21T06:54:21;19.40;;;8.57;;
40707;SDS011;26392;42.696;23.350;2023-08-21T06:56:47;18.80;;;10.30;;
40707;SDS011;26392;42.696;23.350;2023-08-21T06:59:12;18.27;;;9.48;;
40707;SDS011;26392;42.696;23.350;2023-08-21T07:01:37;15.55;;;8.73;;
40707;SDS011;26392;42.696;23.350;2023-08-21T07:04:03;14.18;;;8.60;;
40707;SDS011;26392;42.696;23.350;2023-08-21T07:06:29;15.93;;;9.35;;
40707;SDS011;26392;42.696;23.350;2023-08-21T07:08:55;21.50;;;9.88;;
40707;SDS011;26392;42.696;23.350;2023-08-21T07:11:21;19.98;;;10.13;;
40707;SDS011;26392;42.696;23.350;2023-08-21T07:13:46;17.55;;;8.90;;
40707;SDS011;26392;42.696;23.350;2023-08-21T07:16:12;17.17;;;9.23;;
40707;SDS011;26392;42.696;23.350;2023-08-21T07:18:37;23.75;;;8.60;;
40707;SDS011;26392;42.696;23.350;2023-08-21T07:21:03;21.42;;;9.50;;
40707;SDS011;26392;42.696;23.350;2023-08-21T07:23:30;19.67;;;9.75;;
40707;SDS011;26392;42.696;23.350;2023-08-21T07:25:56;21.45;;;9.18;;
40707;SDS011;26392;42.696;23.350;2023-08-21T07:28:22;25.17;;;10.18;;
40707;SDS011;26392;42.696;23.350;2023-08-21T07:30:48;14.30;;;9.10;;
40707;SDS011;26392;42.696;23.350;2023-08-21T07:33:19;19.40;;;9.52;;
40707;SDS011;26392;42.696;23.350;2023-08-21T07:35:44;19.40;;;9.18;;
40707;SDS011;26392;42.696;23.350;2023-08-21T07:38:09;16.17;;;7.57;;
40707;SDS011;26392;42.696;23.350;2023-08-21T07:40:35;10.52;;;6.85;;
40707;SDS011;26392;42.696;23.350;2023-08-21T07:43:00;17.23;;;6.88;;
40707;SDS011;26392;42.696;23.350;2023-08-21T07:45:26;12.15;;;7.03;;
40707;SDS011;26392;42.696;23.350;2023-08-21T07:47:51;13.10;;;6.93;;
40707;SDS011;26392;42.696;23.350;2023-08-21T07:50:17;16.25;;;6.90;;
40707;SDS011;26392;42.696;23.350;2023-08-21T07:52:42;11.93;;;6.30;;
40707;SDS011;26392;42.696;23.350;2023-08-21T07:55:08;11.43;;;6.63;;
40707;SDS011;26392;42.696;23.350;2023-08-21T07:57:33;10.18;;;6.80;;
40707;SDS011;26392;42.696;23.350;2023-08-21T07:59:59;11.23;;;6.07;;
40707;SDS011;26392;42.696;23.350;2023-08-21T08:02:24;9.95;;;6.13;;
40707;SDS011;26392;42.696;23.350;2023-08-21T08:04:50;11.45;;;6.50;;
40707;SDS011;26392;42.696;23.350;2023-08-21T08:07:15;9.73;;;6.55;;
40707;SDS011;26392;42.696;23.350;2023-08-21T08:09:41;11.23;;;5.90;;
40707;SDS011;26392;42.696;23.350;2023-08-21T08:12:06;9.75;;;5.97;;
40707;SDS011;26392;42.696;23.350;2023-08-21T08:14:32;9.98;;;5.88;;
40707;SDS011;26392;42.696;23.350;2023-08-21T08:16:57;9.70;;;5.70;;
40707;SDS011;26392;42.696;23.350;2023-08-21T08:19:23;14.27;;;5.78;;
40707;SDS011;26392;42.696;23.350;2023-08-21T08:21:48;9.43;;;5.75;;
40707;SDS011;26392;42.696;23.350;2023-08-21T08:24:14;10.00;;;5.70;;
40707;SDS011;26392;42.696;23.350;2023-08-21T08:26:39;8.55;;;6.05;;
40707;SDS011;26392;42.696;23.350;2023-08-21T08:29:06;10.73;;;6.55;;
40707;SDS011;26392;42.696;23.350;2023-08-21T08:31:32;7.07;;;5.57;;
40707;SDS011;26392;42.696;23.350;2023-08-21T08:33:57;10.30;;;5.07;;
40707;SDS011;26392;42.696;23.350;2023-08-21T08:36:23;8.18;;;5.00;;
40707;SDS011;26392;42.696;23.350;2023-08-21T08:38:48;18.25;;;6.10;;
40707;SDS011;26392;42.696;23.350;2023-08-21T08:41:14;6.85;;;5.30;;
40707;SDS011;26392;42.696;23.350;2023-08-21T08:43:50;11.25;;;5.80;;
40707;SDS011;26392;42.696;23.350;2023-08-21T08:46:16;7.97;;;5.20;;
40707;SDS011;26392;42.696;23.350;2023-08-21T08:48:43;9.27;;;5.30;;
40707;SDS011;26392;42.696;23.350;2023-08-21T08:51:08;6.80;;;4.72;;
40707;SDS011;26392;42.696;23.350;2023-08-21T08:53:34;8.15;;;5.03;;
40707;SDS011;26392;42.696;23.350;2023-08-21T08:56:01;8.15;;;5.90;;
40707;SDS011;26392;42.696;23.350;2023-08-21T08:58:28;8.63;;;5.32;;
40707;SDS011;26392;42.696;23.350;2023-08-21T09:00:54;9.85;;;5.47;;
40707;SDS011;26392;42.696;23.350;2023-08-21T09:03:19;12.50;;;5.38;;
40707;SDS011;26392;42.696;23.350;2023-08-21T09:05:45;7.13;;;5.57;;
40707;SDS011;26392;42.696;23.350;2023-08-21T09:08:11;12.07;;;5.50;;
40707;SDS011;26392;42.696;23.350;2023-08-21T09:10:38;9.02;;;5.20;;
40707;SDS011;26392;42.696;23.350;2023-08-21T09:13:17;8.00;;;5.70;;
40707;SDS011;26392;42.696;23.350;2023-08-21T09:15:45;7.75;;;5.45;;
40707;SDS011;26392;42.696;23.350;2023-08-21T09:18:19;7.88;;;5.25;;
40707;SDS011;26392;42.696;23.350;2023-08-21T09:20:44;6.63;;;5.32;;
40707;SDS011;26392;42.696;23.350;2023-08-21T09:23:13;15.35;;;6.82;;
40707;SDS011;26392;42.696;23.350;2023-08-21T09:25:44;8.98;;;5.47;;
40707;SDS011;26392;42.696;23.350;2023-08-21T09:28:13;9.60;;;5.55;;
40707;SDS011;26392;42.696;23.350;2023-08-21T09:30:43;12.45;;;5.28;;
40707;SDS011;26392;42.696;23.350;2023-08-21T09:33:18;10.05;;;5.28;;
40707;SDS011;26392;42.696;23.350;2023-08-21T09:35:46;8.98;;;5.60;;
40707;SDS011;26392;42.696;23.350;2023-08-21T09:38:12;8.82;;;5.30;;
40707;SDS011;26392;42.696;23.350;2023-08-21T09:40:43;7.18;;;4.85;;
40707;SDS011;26392;42.696;23.350;2023-08-21T09:43:16;10.48;;;4.72;;
40707;SDS011;26392;42.696;23.350;2023-08-21T09:45:42;6.57;;;4.38;;
40707;SDS011;26392;42.696;23.350;2023-08-21T09:48:11;5.65;;;4.78;;
40707;SDS011;26392;42.696;23.350;2023-08-21T09:50:38;6.93;;;4.55;;
40707;SDS011;26392;42.696;23.350;2023-08-21T09:53:05;5.85;;;4.18;;
40707;SDS011;26392;42.696;23.350;2023-08-21T09:55:31;12.25;;;4.88;;
40707;SDS011;26392;42.696;23.350;2023-08-21T09:58:01;21.40;;;5.75;;
40707;SDS011;26392;42.696;23.350;2023-08-21T10:00:29;9.70;;;5.03;;
40707;SDS011;26392;42.696;23.350;2023-08-21T10:02:56;6.10;;;4.32;;
40707;SDS011;26392;42.696;23.350;2023-08-21T10:05:26;6.05;;;4.95;;
40707;SDS011;26392;42.696;23.350;2023-08-21T10:07:53;6.10;;;4.82;;
40707;SDS011;26392;42.696;23.350;2023-08-21T10:10:20;5.13;;;4.63;;
40707;SDS011;26392;42.696;23.350;2023-08-21T10:12:47;7.07;;;4.47;;
40707;SDS011;26392;42.696;23.350;2023-08-21T10:15:13;5.70;;;5.03;;
40707;SDS011;26392;42.696;23.350;2023-08-21T10:17:41;9.55;;;4.68;;
40707;SDS011;26392;42.696;23.350;2023-08-21T10:20:08;6.43;;;4.65;;
40707;SDS011;26392;42.696;23.350;2023-08-21T10:27:55;9.33;;;4.77;;
40707;SDS011;26392;42.696;23.350;2023-08-21T10:30:23;7.43;;;5.30;;
40707;SDS011;26392;42.696;23.350;2023-08-21T10:32:53;6.00;;;4.55;;
40707;SDS011;26392;42.696;23.350;2023-08-21T10:35:21;11.43;;;5.18;;
40707;SDS011;26392;42.696;23.350;2023-08-21T10:46:08;5.15;;;4.00;;
40707;SDS011;26392;42.696;23.350;2023-08-21T10:48:34;9.63;;;4.18;;
40707;SDS011;26392;42.696;23.350;2023-08-21T10:51:01;5.95;;;4.53;;
40707;SDS011;26392;42.696;23.350;2023-08-21T10:53:29;7.13;;;4.35;;
40707;SDS011;26392;42.696;23.350;2023-08-21T10:55:55;6.22;;;3.60;;
40707;SDS011;26392;42.696;23.350;2023-08-21T10:58:21;5.97;;;4.07;;
40707;SDS011;26392;42.696;23.350;2023-08-21T11:00:55;5.28;;;4.07;;
40707;SDS011;26392;42.696;23.350;2023-08-21T11:03:22;6.05;;;4.47;;
40707;SDS011;26392;42.696;23.350;2023-08-21T11:05:59;8.43;;;4.40;;
40707;SDS011;26392;42.696;23.350;2023-08-21T11:08:29;6.45;;;4.40;;
40707;SDS011;26392;42.696;23.350;2023-08-21T11:10:54;5.35;;;4.28;;
40707;SDS011;26392;42.696;23.350;2023-08-21T11:13:22;8.05;;;4.10;;
40707;SDS011;26392;42.696;23.350;2023-08-21T11:15:49;10.35;;;5.35;;
40707;SDS011;26392;42.696;23.350;2023-08-21T11:18:33;7.80;;;4.28;;
40707;SDS011;26392;42.696;23.350;2023-08-21T11:21:09;8.18;;;4.32;;
40707;SDS011;26392;42.696;23.350;2023-08-21T11:23:40;6.05;;;4.30;;
40707;SDS011;26392;42.696;23.350;2023-08-21T11:26:06;4.93;;;4.40;;
40707;SDS011;26392;42.696;23.350;2023-08-21T11:28:35;9.55;;;4.70;;
40707;SDS011;26392;42.696;23.350;2023-08-21T11:31:00;4.85;;;4.32;;
40707;SDS011;26392;42.696;23.350;2023-08-21T11:33:26;6.75;;;4.20;;
40707;SDS011;26392;42.696;23.350;2023-08-21T11:35:53;4.70;;;4.28;;
40707;SDS011;26392;42.696;23.350;2023-08-21T11:38:20;5.68;;;4.10;;
40707;SDS011;26392;42.696;23.350;2023-08-21T11:43:18;7.28;;;4.43;;
40707;SDS011;26392;42.696;23.350;2023-08-21T11:45:45;9.75;;;4.53;;
40707;SDS011;26392;42.696;23.350;2023-08-21T11:48:11;5.55;;;4.13;;
40707;SDS011;26392;42.696;23.350;2023-08-21T11:50:36;7.85;;;4.60;;
40707;SDS011;26392;42.696;23.350;2023-08-21T11:53:02;7.93;;;4.30;;
40707;SDS011;26392;42.696;23.350;2023-08-21T11:55:29;7.20;;;4.07;;
40707;SDS011;26392;42.696;23.350;2023-08-21T11:57:54;5.80;;;4.20;;
40707;SDS011;26392;42.696;23.350;2023-08-21T12:00:26;7.38;;;4.60;;
40707;SDS011;26392;42.696;23.350;2023-08-21T12:02:57;5.28;;;4.15;;
40707;SDS011;26392;42.696;23.350;2023-08-21T12:05:25;7.40;;;4.72;;
40707;SDS011;26392;42.696;23.350;2023-08-21T12:07:52;10.45;;;4.75;;
40707;SDS011;26392;42.696;23.350;2023-08-21T12:10:27;6.10;;;4.40;;
40707;SDS011;26392;42.696;23.350;2023-08-21T12:12:55;6.97;;;4.65;;
40707;SDS011;26392;42.696;23.350;2023-08-21T12:15:21;11.15;;;4.35;;
40707;SDS011;26392;42.696;23.350;2023-08-21T12:17:47;6.63;;;4.25;;
40707;SDS011;26392;42.696;23.350;2023-08-21T12:20:12;13.10;;;5.07;;
40707;SDS011;26392;42.696;23.350;2023-08-21T12:22:40;7.07;;;5.28;;
40707;SDS011;26392;42.696;23.350;2023-08-21T12:25:07;7.25;;;4.55;;
40707;SDS011;26392;42.696;23.350;2023-08-21T12:27:34;7.50;;;4.20;;
40707;SDS011;26392;42.696;23.350;2023-08-21T12:29:59;9.98;;;4.85;;
40707;SDS011;26392;42.696;23.350;2023-08-21T12:32:25;10.98;;;4.15;;
40707;SDS011;26392;42.696;23.350;2023-08-21T12:34:50;6.50;;;4.30;;
40707;SDS011;26392;42.696;23.350;2023-08-21T12:37:17;5.53;;;4.00;;
40707;SDS011;26392;42.696;23.350;2023-08-21T12:39:43;7.93;;;4.30;;
40707;SDS011;26392;42.696;23.350;2023-08-21T12:42:08;5.30;;;4.05;;
40707;SDS011;26392;42.696;23.350;2023-08-21T12:44:34;7.43;;;4.55;;
40707;SDS011;26392;42.696;23.350;2023-08-21T12:46:59;5.55;;;4.07;;
40707;SDS011;26392;42.696;23.350;2023-08-21T12:49:25;5.53;;;4.03;;
40707;SDS011;26392;42.696;23.350;2023-08-21T12:51:51;7.47;;;4.78;;
40707;SDS011;26392;42.696;23.350;2023-08-21T12:54:17;8.02;;;3.63;;
40707;SDS011;26392;42.696;23.350;2023-08-21T12:56:42;7.07;;;4.10;;
40707;SDS011;26392;42.696;23.350;2023-08-21T12:59:08;7.30;;;4.07;;
40707;SDS011;26392;42.696;23.350;2023-08-21T13:01:33;6.72;;;4.30;;
40707;SDS011;26392;42.696;23.350;2023-08-21T13:04:01;4.43;;;4.03;;
40707;SDS011;26392;42.696;23.350;2023-08-21T13:06:26;11.52;;;4.38;;
40707;SDS011;26392;42.696;23.350;2023-08-21T13:08:52;5.18;;;4.32;;
40707;SDS011;26392;42.696;23.350;2023-08-21T13:11:19;5.95;;;4.20;;
40707;SDS011;26392;42.696;23.350;2023-08-21T13:13:44;9.02;;;4.30;;
40707;SDS011;26392;42.696;23.350;2023-08-21T13:16:10;7.03;;;4.30;;
40707;SDS011;26392;42.696;23.350;2023-08-21T13:18:35;4.57;;;4.07;;
40707;SDS011;26392;42.696;23.350;2023-08-21T13:21:01;7.05;;;4.30;;
40707;SDS011;26392;42.696;23.350;2023-08-21T13:23:28;6.68;;;4.65;;
40707;SDS011;26392;42.696;23.350;2023-08-21T13:25:54;7.22;;;4.30;;
40707;SDS011;26392;42.696;23.350;2023-08-21T13:28:19;10.20;;;4.53;;
40707;SDS011;26392;42.696;23.350;2023-08-21T13:30:45;6.13;;;4.40;;
40707;SDS011;26392;42.696;23.350;2023-08-21T13:33:11;9.93;;;4.60;;
40707;SDS011;26392;42.696;23.350;2023-08-21T13:35:36;8.50;;;4.35;;
40707;SDS011;26392;42.696;23.350;2023-08-21T13:38:02;7.47;;;4.15;;
40707;SDS011;26392;42.696;23.350;2023-08-21T13:40:28;8.05;;;4.35;;
40707;SDS011;26392;42.696;23.350;2023-08-21T13:42:54;6.13;;;4.13;;
40707;SDS011;26392;42.696;23.350;2023-08-21T13:45:20;4.93;;;3.97;;
40707;SDS011;26392;42.696;23.350;2023-08-21T13:47:46;8.10;;;4.15;;
40707;SDS011;26392;42.696;23.350;2023-08-21T13:50:13;8.25;;;4.65;;
40707;SDS011;26392;42.696;23.350;2023-08-21T13:52:40;6.05;;;4.25;;
40707;SDS011;26392;42.696;23.350;2023-08-21T13:55:07;5.78;;;4.70;;
40707;SDS011;26392;42.696;23.350;2023-08-21T13:57:34;8.63;;;4.88;;
40707;SDS011;26392;42.696;23.350;2023-08-21T14:00:00;7.50;;;4.88;;
40707;SDS011;26392;42.696;23.350;2023-08-21T14:02:25;6.43;;;4.40;;
40707;SDS011;26392;42.696;23.350;2023-08-21T14:04:51;4.97;;;4.32;;
40707;SDS011;26392;42.696;23.350;2023-08-21T14:07:17;6.43;;;4.35;;
40707;SDS011;26392;42.696;23.350;2023-08-21T14:09:42;6.60;;;4.35;;
40707;SDS011;26392;42.696;23.350;2023-08-21T14:12:08;6.10;;;4.95;;
40707;SDS011;26392;42.696;23.350;2023-08-21T14:14:36;5.25;;;4.15;;
40707;SDS011;26392;42.696;23.350;2023-08-21T14:17:02;5.72;;;4.40;;
40707;SDS011;26392;42.696;23.350;2023-08-21T14:19:29;6.60;;;4.40;;
40707;SDS011;26392;42.696;23.350;2023-08-21T14:21:54;7.22;;;4.20;;
40707;SDS011;26392;42.696;23.350;2023-08-21T14:24:20;7.53;;;4.80;;
40707;SDS011;26392;42.696;23.350;2023-08-21T14:26:45;6.63;;;3.90;;
40707;SDS011;26392;42.696;23.350;2023-08-21T14:29:11;7.18;;;4.60;;
40707;SDS011;26392;42.696;23.350;2023-08-21T14:31:36;8.88;;;4.78;;
40707;SDS011;26392;42.696;23.350;2023-08-21T14:34:02;11.13;;;4.60;;
40707;SDS011;26392;42.696;23.350;2023-08-21T14:36:27;7.95;;;4.57;;
40707;SDS011;26392;42.696;23.350;2023-08-21T14:38:53;5.78;;;4.47;;
40707;SDS011;26392;42.696;23.350;2023-08-21T14:41:18;6.20;;;4.78;;
40707;SDS011;26392;42.696;23.350;2023-08-21T14:43:44;6.28;;;4.78;;